createdAt,value
2022-12-09T00:02:12.304Z,99970.56
2022-12-09T00:07:58.302Z,99979.19
2022-12-09T00:10:45.547Z,99991.91
2022-12-09T00:16:28.908Z,99977.19
2022-12-09T00:18:57.154Z,99977.19
2022-12-09T00:21:26.363Z,99992.34
2022-12-09T00:23:55.721Z,99998.16
2022-12-09T00:26:24.484Z,100000.72
2022-12-09T00:28:53.651Z,99996.56
2022-12-09T00:31:25.409Z,100002.72
2022-12-09T00:37:24.787Z,99995.88
2022-12-09T00:40:07.265Z,99984.53
2022-12-09T00:42:44.273Z,99960.69
2022-12-09T00:45:12.218Z,99974.94
2022-12-09T00:47:42.944Z,99989.31
2022-12-09T00:50:13.229Z,99988.31
2022-12-09T00:52:43.870Z,99986.75
2022-12-09T00:58:16.213Z,99990.06
2022-12-09T01:01:04.137Z,99992.06
2022-12-09T01:03:33.173Z,99985.38
2022-12-09T01:06:02.153Z,99986.94
2022-12-09T01:08:43.745Z,100000.56
2022-12-09T01:14:21.315Z,99995.66
2022-12-09T01:16:49.286Z,99995.22
2022-12-09T01:19:16.847Z,99988.41
2022-12-09T01:21:45.394Z,99999.88
2022-12-09T01:24:14.222Z,99989.59
2022-12-09T01:26:41.636Z,99995.66
2022-12-09T01:29:09.085Z,99995.91
2022-12-09T01:31:37.450Z,99990.63
2022-12-09T01:34:06.514Z,99987.53
2022-12-09T01:39:39.515Z,99978.03
2022-12-09T01:42:11.723Z,99982.91
2022-12-09T01:48:16.176Z,99995.22
2022-12-09T01:50:51.556Z,99962.63
2022-12-09T01:53:57.174Z,99993.66
2022-12-09T02:03:01.843Z,99924.28
2022-12-09T02:09:13.187Z,99975.91
2022-12-09T02:18:57.160Z,99967.56
2022-12-09T02:21:47.259Z,99965.59
2022-12-09T02:24:47.197Z,99972.69
2022-12-09T02:27:43.354Z,99957.91
2022-12-09T02:30:46.003Z,99966.28
2022-12-09T02:33:57.459Z,99979.25
2022-12-09T02:37:13.859Z,99976.88
2022-12-09T02:43:24.938Z,99945.06
2022-12-09T02:45:58.729Z,99964.06
2022-12-09T02:48:37.981Z,99956.25
2022-12-09T02:51:11.664Z,99955.94
2022-12-09T02:56:26.652Z,99876.84
2022-12-09T03:18:21.597Z,99924.56
2022-12-09T03:20:51.964Z,99948.47
2022-12-09T03:23:27.930Z,99928.31
2022-12-09T03:26:01.699Z,99928.31
2022-12-09T03:28:35.784Z,99948.31
2022-12-09T03:31:07.972Z,99942.94
2022-12-09T03:33:38.665Z,99948.31
2022-12-09T03:36:13.180Z,99948.31
2022-12-09T03:38:44.502Z,99933.75
2022-12-09T03:41:32.702Z,99942.94
2022-12-09T03:44:23.331Z,99914.28
2022-12-09T03:52:48.513Z,99935.25
2022-12-09T03:55:43.336Z,99935.56
2022-12-09T03:58:13.857Z,99905.88
2022-12-09T04:00:41.515Z,99928.00
2022-12-09T04:03:10.860Z,99932.88
2022-12-09T04:05:38.288Z,99934.66
2022-12-09T04:08:05.710Z,99924.75
2022-12-09T04:10:33.281Z,99889.94
2022-12-09T04:13:02.562Z,99932.88
2022-12-09T04:15:29.583Z,99906.38
2022-12-09T04:17:57.475Z,99929.41
2022-12-09T04:20:25.016Z,99916.28
2022-12-09T04:22:52.262Z,99912.81
2022-12-09T04:25:19.562Z,99913.91
2022-12-09T04:27:46.843Z,99878.31
2022-12-09T04:30:14.674Z,99917.88
2022-12-09T04:32:42.343Z,99928.13
2022-12-09T04:35:10.673Z,99922.78
2022-12-09T04:37:39.170Z,99933.28
2022-12-09T04:40:08.070Z,99889.69
2022-12-09T04:42:37.996Z,99925.19
2022-12-09T04:45:06.242Z,99922.78
2022-12-09T04:47:36.779Z,99917.66
2022-12-09T04:50:16.442Z,99916.56
2022-12-09T04:52:50.435Z,99897.66
2022-12-09T04:55:19.250Z,99913.19
2022-12-09T04:57:51.523Z,99924.78
2022-12-09T05:00:28.061Z,99883.06
2022-12-09T05:02:56.197Z,99900.88
2022-12-09T05:05:25.159Z,99902.06
2022-12-09T05:07:53.532Z,99886.22
2022-12-09T05:10:21.696Z,99916.97
2022-12-09T05:12:50.255Z,99915.19
2022-12-09T05:15:18.487Z,99896.91
2022-12-09T05:17:46.048Z,99919.63
2022-12-09T05:20:15.862Z,99916.31
2022-12-09T05:25:28.704Z,99874.47
2022-12-09T05:28:08.010Z,99901.06
2022-12-09T05:30:42.321Z,99888.81
2022-12-09T05:33:13.991Z,99884.78
2022-12-09T05:39:29.212Z,99891.97
2022-12-09T05:45:01.213Z,99847.53
2022-12-09T05:47:30.606Z,99847.91
2022-12-09T05:50:01.706Z,99885.66
2022-12-09T05:52:31.894Z,99894.06
2022-12-09T05:54:59.118Z,99895.16
2022-12-09T05:57:26.446Z,99881.03
2022-12-09T05:59:54.228Z,99887.25
2022-12-09T06:02:21.801Z,99877.56
2022-12-09T06:04:49.314Z,99875.97
2022-12-09T06:07:17.150Z,99867.16
2022-12-09T06:13:03.119Z,99807.78
2022-12-09T06:16:05.289Z,99828.53
2022-12-09T06:18:33.220Z,99869.25
2022-12-09T06:21:06.227Z,99874.50
2022-12-09T06:23:42.850Z,99866.69
2022-12-09T06:26:20.275Z,99872.53
2022-12-09T06:28:48.166Z,99865.09
2022-12-09T06:31:15.719Z,99867.28
2022-12-09T06:33:54.716Z,99885.84
2022-12-09T06:36:42.256Z,99838.81
2022-12-09T06:39:22.380Z,99886.66
2022-12-09T06:41:59.589Z,99878.72
2022-12-09T06:44:27.005Z,99851.66
2022-12-09T06:46:55.479Z,99873.00
2022-12-09T06:49:23.217Z,99882.78
2022-12-09T06:51:50.604Z,99876.53
2022-12-09T06:54:17.980Z,99847.63
2022-12-09T06:56:45.361Z,99861.91
2022-12-09T06:59:12.649Z,99841.25
2022-12-09T07:01:40.076Z,99850.84
2022-12-09T07:04:08.252Z,99859.44
2022-12-09T07:06:44.265Z,99859.34
2022-12-09T07:09:21.003Z,99826.66
2022-12-09T07:11:49.518Z,99870.44
2022-12-09T07:14:18.618Z,99825.69
2022-12-09T07:16:46.864Z,99855.13
2022-12-09T07:19:20.192Z,99831.88
2022-12-09T07:21:48.090Z,99847.31
2022-12-09T07:24:20.309Z,99863.31
2022-12-09T07:26:48.508Z,99853.50
2022-12-09T07:29:16.504Z,99867.94
2022-12-09T07:31:43.793Z,99857.28
2022-12-09T07:34:12.048Z,99880.09
2022-12-09T07:36:40.632Z,99864.69
2022-12-09T07:39:13.586Z,99868.22
2022-12-09T07:41:44.828Z,99868.22
2022-12-09T07:44:12.977Z,99862.72
2022-12-09T07:46:41.028Z,99874.00
2022-12-09T07:49:08.761Z,99824.19
2022-12-09T07:51:37.655Z,99869.03
2022-12-09T07:54:24.611Z,99863.00
2022-12-09T07:57:05.018Z,99707.31
2022-12-09T07:59:37.985Z,99650.66
2022-12-09T08:02:14.731Z,99855.09
2022-12-09T08:04:47.097Z,99709.47
2022-12-09T08:07:14.777Z,99852.72
2022-12-09T08:09:42.168Z,99821.97
2022-12-09T08:12:11.788Z,99835.44
2022-12-09T08:14:39.178Z,99832.16
2022-12-09T08:17:06.542Z,99832.53
2022-12-09T08:19:33.922Z,99819.78
2022-12-09T08:22:01.043Z,99814.22
2022-12-09T08:24:28.179Z,99763.00
2022-12-09T08:27:07.584Z,99821.34
2022-12-09T08:29:42.098Z,99810.69
2022-12-09T08:32:10.495Z,99805.91
2022-12-09T08:34:38.105Z,99777.69
2022-12-09T08:37:15.831Z,99796.34
2022-12-09T08:39:43.192Z,99790.88
2022-12-09T08:42:10.356Z,99738.16
2022-12-09T08:44:38.186Z,99775.66
2022-12-09T08:47:05.935Z,99772.09
2022-12-09T08:49:33.267Z,99765.72
2022-12-09T08:52:01.170Z,99771.94
2022-12-09T08:54:28.911Z,99749.75
2022-12-09T08:56:57.061Z,99763.34
2022-12-09T08:59:25.597Z,99767.09
2022-12-09T09:01:56.395Z,99706.81
2022-12-09T09:04:25.241Z,99755.44
2022-12-09T09:06:52.663Z,99741.59
2022-12-09T09:09:21.395Z,99752.97
2022-12-09T09:11:49.594Z,99743.38
2022-12-09T09:14:17.445Z,99707.16
2022-12-09T09:16:51.861Z,99735.13
2022-12-09T09:19:25.095Z,99733.00
2022-12-09T09:21:58.721Z,99749.09
2022-12-09T09:24:28.234Z,99729.13
2022-12-09T09:27:00.261Z,99731.53
2022-12-09T09:29:28.963Z,99710.91
2022-12-09T09:31:57.540Z,99730.63
2022-12-09T09:34:27.457Z,99736.34
2022-12-09T09:37:10.168Z,99734.44
2022-12-09T09:39:38.810Z,99724.44
2022-12-09T09:42:13.425Z,99693.31
2022-12-09T09:44:45.681Z,99715.38
2022-12-09T09:47:39.128Z,99633.56
2022-12-09T09:50:38.741Z,99710.44
2022-12-09T09:53:19.480Z,99669.59
2022-12-09T09:56:00.193Z,99713.00
2022-12-09T09:58:57.463Z,99692.84
2022-12-09T10:01:31.437Z,99711.84
2022-12-09T10:04:26.752Z,99700.66
2022-12-09T10:07:08.323Z,99705.50
2022-12-09T10:10:06.006Z,99685.59
2022-12-09T10:12:46.199Z,99697.63
2022-12-09T10:15:25.087Z,99690.72
2022-12-09T10:18:06.235Z,99683.00
2022-12-09T10:20:33.928Z,99689.13
2022-12-09T10:23:04.079Z,99688.22
2022-12-09T10:25:45.468Z,99652.56
2022-12-09T10:28:24.853Z,99686.75
2022-12-09T10:30:55.433Z,99689.31
2022-12-09T10:33:37.246Z,99689.47
2022-12-09T10:36:07.749Z,99680.50
2022-12-09T10:38:41.157Z,99632.50
2022-12-09T10:42:06.171Z,99682.56
2022-12-09T10:44:33.461Z,99642.47
2022-12-09T10:47:18.481Z,99672.66
2022-12-09T10:49:48.123Z,99653.66
2022-12-09T10:52:31.764Z,99608.56
2022-12-09T10:55:05.345Z,99648.06
2022-12-09T10:57:32.750Z,99607.19
2022-12-09T11:00:20.744Z,99649.13
2022-12-09T11:03:04.790Z,99643.00
2022-12-09T11:05:36.677Z,99628.44
2022-12-09T11:08:12.576Z,99646.19
2022-12-09T11:10:50.193Z,99635.72
2022-12-09T11:13:20.284Z,99644.78
2022-12-09T11:15:54.543Z,99655.06
2022-12-09T11:18:46.220Z,99642.63
2022-12-09T11:21:37.196Z,99642.81
2022-12-09T11:24:05.767Z,99612.31
2022-12-09T11:26:38.443Z,99634.84
2022-12-09T11:29:18.594Z,99618.78
2022-12-09T11:31:46.485Z,99613.72
2022-12-09T11:34:28.078Z,99608.41
2022-12-09T11:37:01.384Z,99614.09
2022-12-09T11:39:36.782Z,99581.72
2022-12-09T11:42:22.090Z,99611.09
2022-12-09T11:44:56.884Z,99615.84
2022-12-09T11:48:21.166Z,99601.22
2022-12-09T11:50:34.717Z,99597.41
2022-12-09T11:53:12.243Z,99554.84
2022-12-09T11:55:53.396Z,99584.75
2022-12-09T11:58:27.629Z,99540.66
2022-12-09T12:01:01.661Z,99604.31
2022-12-09T12:03:44.959Z,99594.03
2022-12-09T12:06:22.891Z,99594.75
2022-12-09T12:09:01.217Z,99598.66
2022-12-09T12:11:34.471Z,99594.41
2022-12-09T12:14:17.650Z,99608.22
2022-12-09T12:16:57.658Z,99602.88
2022-12-09T12:19:38.866Z,99558.91
2022-12-09T12:22:43.448Z,99592.59
2022-12-09T12:25:26.053Z,99608.22
2022-12-09T12:28:11.139Z,99599.69
2022-12-09T12:31:10.421Z,99597.75
2022-12-09T12:34:23.531Z,99615.84
2022-12-09T12:37:27.063Z,99615.69
2022-12-09T12:40:02.759Z,99626.81
2022-12-09T12:42:39.583Z,99623.44
2022-12-09T12:45:37.497Z,99613.16
2022-12-09T12:48:12.400Z,99605.72
2022-12-09T12:51:17.228Z,99610.25
2022-12-09T12:54:02.880Z,99612.53
2022-12-09T12:56:38.128Z,99610.50
2022-12-09T12:59:31.482Z,99615.66
2022-12-09T13:02:14.776Z,99613.84
2022-12-09T13:04:49.188Z,99609.31
2022-12-09T13:07:33.158Z,99571.44
2022-12-09T13:10:04.168Z,99597.00
2022-12-09T13:12:54.089Z,99608.97
2022-12-09T13:15:27.675Z,99602.91
2022-12-09T13:17:55.552Z,99599.50
2022-12-09T13:20:34.725Z,99598.38
2022-12-09T13:23:31.550Z,99529.75
2022-12-09T13:26:17.250Z,99596.72
2022-12-09T13:29:08.823Z,99599.50
2022-12-09T13:31:39.307Z,99594.34
2022-12-09T13:34:18.469Z,99592.47
2022-12-09T13:36:47.740Z,99586.88
2022-12-09T13:39:39.594Z,99595.91
2022-12-09T13:42:46.869Z,99601.06
2022-12-09T13:45:43.022Z,99596.72
2022-12-09T13:48:16.800Z,99591.59
2022-12-09T13:50:57.628Z,99542.09
2022-12-09T13:53:26.527Z,99580.34
2022-12-09T13:56:07.231Z,99585.47
2022-12-09T13:58:34.211Z,99584.69
2022-12-09T14:01:13.497Z,99576.97
2022-12-09T14:04:06.198Z,99578.75
2022-12-09T14:06:37.960Z,99581.41
2022-12-09T14:09:38.784Z,99528.03
2022-12-09T14:12:27.149Z,99570.69
2022-12-09T14:15:23.380Z,99566.69
2022-12-09T14:17:50.305Z,99566.69
2022-12-09T14:20:37.033Z,99572.03
2022-12-09T14:23:06.892Z,99571.13
2022-12-09T14:25:33.938Z,99566.88
2022-12-09T14:28:09.734Z,99559.94
2022-12-09T14:30:52.669Z,99558.38
2022-12-09T14:33:30.039Z,99556.63
2022-12-09T14:36:03.828Z,99533.72
2022-12-09T14:41:58.791Z,99517.50
2022-12-09T14:45:04.494Z,99527.16
2022-12-09T14:47:34.036Z,99528.78
2022-12-09T14:50:22.550Z,99491.91
2022-12-09T14:53:00.606Z,99507.16
2022-12-09T14:55:29.994Z,99509.75
2022-12-09T14:58:00.806Z,99501.66
2022-12-09T15:00:40.941Z,99507.06
2022-12-09T15:03:44.898Z,99509.63
2022-12-09T15:06:16.567Z,99507.88
2022-12-09T15:08:43.482Z,99521.31
2022-12-09T15:11:16.765Z,99535.31
2022-12-09T15:13:47.499Z,99501.63
2022-12-09T15:16:17.865Z,99506.44
2022-12-09T15:18:45.978Z,99517.75
2022-12-09T15:21:26.494Z,99477.16
2022-12-09T15:23:56.502Z,99532.91
2022-12-09T15:26:28.074Z,99532.16
2022-12-09T15:28:56.774Z,99496.69
2022-12-09T15:31:27.136Z,99488.25
2022-12-09T15:33:59.687Z,99521.25
2022-12-09T15:36:31.667Z,99524.69
2022-12-09T15:39:24.048Z,99534.97
2022-12-09T15:42:08.061Z,99485.00
2022-12-09T15:44:44.514Z,99528.34
2022-12-09T15:47:18.160Z,99521.50
2022-12-09T15:49:53.458Z,99528.41
2022-12-09T15:52:24.019Z,99524.19
2022-12-09T15:54:51.743Z,99496.00
2022-12-09T15:57:21.628Z,99494.56
2022-12-09T15:59:57.152Z,99494.97
2022-12-09T16:02:30.550Z,99483.59
2022-12-09T16:05:02.162Z,99484.69
2022-12-09T16:07:32.967Z,99442.13
2022-12-09T16:10:11.436Z,99474.22
2022-12-09T16:12:40.764Z,99457.13
2022-12-09T16:15:11.763Z,99453.97
2022-12-09T16:17:54.536Z,99468.53
2022-12-09T16:20:34.932Z,99493.72
2022-12-09T16:23:04.137Z,99487.88
2022-12-09T16:25:38.826Z,99475.19
2022-12-09T16:28:06.897Z,99480.94
2022-12-09T16:30:45.683Z,99485.91
2022-12-09T16:33:20.564Z,99482.13
2022-12-09T16:35:58.815Z,99476.25
2022-12-09T16:38:26.451Z,99448.00
2022-12-09T16:40:53.317Z,99474.56
2022-12-09T16:43:23.435Z,99476.31
2022-12-09T16:45:53.312Z,99475.38
2022-12-09T16:48:22.457Z,99448.44
2022-12-09T16:50:56.929Z,99469.78
2022-12-09T16:53:28.830Z,99413.97
2022-12-09T16:56:01.078Z,99447.63
2022-12-09T16:58:29.603Z,99479.69
2022-12-09T17:00:58.973Z,99475.56
2022-12-09T17:03:41.694Z,99439.69
2022-12-09T17:06:14.845Z,99424.06
2022-12-09T17:08:42.110Z,99481.66
2022-12-09T17:11:09.709Z,99474.75
2022-12-09T17:13:37.047Z,99452.94
2022-12-09T17:16:06.449Z,99487.88
2022-12-09T17:18:34.460Z,99463.94
2022-12-09T17:21:04.356Z,99485.97
2022-12-09T17:23:39.109Z,99494.06
2022-12-09T17:26:08.786Z,99484.59
2022-12-09T17:28:36.575Z,99487.22
2022-12-09T17:31:12.006Z,99488.66
2022-12-09T17:33:43.956Z,99456.47
2022-12-09T17:36:12.458Z,99453.56
2022-12-09T17:38:39.692Z,99476.78
2022-12-09T17:41:14.892Z,99467.91
2022-12-09T17:43:43.466Z,99500.78
2022-12-09T17:46:12.334Z,99494.94
2022-12-09T17:48:40.487Z,99493.34
2022-12-09T17:51:13.429Z,99439.69
2022-12-09T17:53:42.536Z,99477.13
2022-12-09T17:56:20.030Z,99483.41
2022-12-09T17:58:48.717Z,99488.72
2022-12-09T18:01:19.611Z,99483.69
2022-12-09T18:03:56.450Z,99442.28
2022-12-09T18:06:31.888Z,99479.41
2022-12-09T18:08:59.154Z,99452.22
2022-12-09T18:11:27.908Z,99460.19
2022-12-09T18:13:55.108Z,99451.34
2022-12-09T18:16:22.356Z,99442.13
2022-12-09T18:18:49.992Z,99451.59
2022-12-09T18:21:19.882Z,99415.72
2022-12-09T18:23:48.544Z,99423.88
2022-12-09T18:26:18.233Z,99445.66
2022-12-09T18:28:45.731Z,99417.50
2022-12-09T18:31:15.904Z,99430.63
2022-12-09T18:33:43.476Z,99437.63
2022-12-09T18:36:16.211Z,99437.53
2022-12-09T18:38:43.859Z,99407.66
2022-12-09T18:41:25.892Z,99382.59
2022-12-09T18:43:54.503Z,99417.31
2022-12-09T18:46:28.635Z,99429.53
2022-12-09T18:49:11.820Z,99421.66
2022-12-09T18:51:39.946Z,99411.66
2022-12-09T18:54:07.950Z,99427.78
2022-12-09T18:56:36.781Z,99416.44
2022-12-09T18:59:06.863Z,99405.88
2022-12-09T19:01:39.812Z,99383.31
2022-12-09T19:04:13.438Z,99409.97
2022-12-09T19:06:42.681Z,99404.03
2022-12-09T19:09:14.060Z,99409.97
2022-12-09T19:11:43.180Z,99396.75
2022-12-09T19:14:11.539Z,99410.41
2022-12-09T19:16:39.254Z,99406.06
2022-12-09T19:19:11.000Z,99405.97
2022-12-09T19:21:39.426Z,99387.22
2022-12-09T19:24:08.403Z,99404.22
2022-12-09T19:26:37.331Z,99365.19
2022-12-09T19:29:07.421Z,99405.09
2022-12-09T19:31:42.196Z,99381.22
2022-12-09T19:34:15.743Z,99378.78
2022-12-09T19:36:44.511Z,99394.66
2022-12-09T19:39:13.965Z,99399.78
2022-12-09T19:41:42.059Z,99398.00
2022-12-09T19:44:21.529Z,99394.47
2022-12-09T19:46:57.676Z,99369.06
2022-12-09T19:49:25.038Z,99397.22
2022-12-09T19:51:52.936Z,99402.44
2022-12-09T19:54:25.273Z,99393.03
2022-12-09T19:56:55.984Z,99350.53
2022-12-09T19:59:24.522Z,99400.84
2022-12-09T20:01:51.909Z,99384.81
2022-12-09T20:04:48.086Z,99385.78
2022-12-09T20:07:10.191Z,99407.03
2022-12-09T20:09:40.457Z,99398.50
2022-12-09T20:12:09.141Z,99395.09
2022-12-09T20:14:36.375Z,99397.56
2022-12-09T20:17:04.648Z,99389.75
2022-12-09T20:19:32.011Z,99399.22
2022-12-09T20:21:59.426Z,99408.78
2022-12-09T20:24:27.047Z,99370.03
2022-12-09T20:26:56.163Z,99404.66
2022-12-09T20:29:23.303Z,99408.16
2022-12-09T20:31:50.599Z,99376.81
2022-12-09T20:34:18.252Z,99394.88
2022-12-09T20:36:46.285Z,99392.31
2022-12-09T20:39:19.110Z,99410.72
2022-12-09T20:41:47.541Z,99377.09
2022-12-09T20:44:15.795Z,99416.94
2022-12-09T20:46:47.060Z,99413.72
2022-12-09T20:49:14.381Z,99424.16
2022-12-09T20:51:47.334Z,99419.19
2022-12-09T20:54:14.616Z,99379.00
2022-12-09T20:56:42.340Z,99416.63
2022-12-09T20:59:12.056Z,99398.44
2022-12-09T21:01:39.335Z,99358.09
2022-12-09T21:04:07.758Z,99373.28
2022-12-09T21:06:37.025Z,99382.47
2022-12-09T21:09:07.892Z,99373.88
2022-12-09T21:11:36.078Z,99363.66
2022-12-09T21:14:06.957Z,99383.47
2022-12-09T21:16:41.432Z,99391.25
2022-12-09T21:19:13.032Z,99385.13
2022-12-09T21:21:47.472Z,99368.31
2022-12-09T21:30:27.616Z,99366.97
2022-12-09T21:33:12.378Z,99343.34
2022-12-09T21:45:14.161Z,99355.72
2022-12-09T21:51:18.721Z,99316.31
2022-12-09T21:53:49.122Z,99345.28
2022-12-09T21:56:21.340Z,99316.97
2022-12-09T21:58:51.086Z,99339.94
2022-12-09T22:01:34.186Z,99342.44
2022-12-09T22:04:04.469Z,99305.47
2022-12-09T22:06:32.690Z,99320.75
2022-12-09T22:09:05.408Z,99327.59
2022-12-09T22:11:40.247Z,99269.53
2022-12-09T22:14:11.480Z,99281.38
2022-12-09T22:16:42.635Z,99318.16
2022-12-09T22:19:14.924Z,99295.09
2022-12-09T22:21:42.496Z,99329.53
2022-12-09T22:24:11.840Z,99302.59
2022-12-09T22:26:40.259Z,99324.03
2022-12-09T22:29:08.132Z,99275.38
2022-12-09T22:31:37.450Z,99323.50
2022-12-09T22:34:11.376Z,99319.38
2022-12-09T22:36:43.051Z,99324.69
2022-12-09T22:39:22.169Z,99330.81
2022-12-09T22:41:49.639Z,99329.13
2022-12-09T22:44:19.166Z,99328.41
2022-12-09T22:46:48.265Z,99328.56
2022-12-09T22:52:11.600Z,99225.44
2022-12-09T22:54:39.109Z,99307.81
2022-12-09T22:57:09.212Z,99286.94
2022-12-09T22:59:42.681Z,99280.69
2022-12-09T23:02:10.334Z,99308.00
2022-12-09T23:04:52.839Z,99294.16
2022-12-09T23:07:27.083Z,99320.53
2022-12-09T23:15:51.124Z,99318.03
2022-12-09T23:18:24.211Z,99318.94
2022-12-09T23:21:13.421Z,99305.44
2022-12-09T23:24:02.970Z,99316.50
2022-12-09T23:26:36.135Z,99303.16
2022-12-09T23:29:09.263Z,99303.25
2022-12-09T23:31:38.880Z,99310.88
2022-12-09T23:34:19.915Z,99307.59
2022-12-09T23:36:50.558Z,99292.81
2022-12-09T23:39:19.896Z,99323.38
2022-12-09T23:42:01.684Z,99327.78
2022-12-09T23:44:45.963Z,99308.66
2022-12-09T23:47:17.095Z,99328.09
2022-12-09T23:53:03.695Z,99272.72
2022-12-09T23:55:32.697Z,99317.06
2022-12-09T23:58:00.036Z,99311.72
